sensor_id;sensor_type;location;lat;lon;timestamp;P1;durP1;ratioP1;P2;durP2;ratioP2
65706;SDS011;52423;43.512;5.220;2023-01-04T00:00:34;14.88;;;9.68;;
65706;SDS011;52423;43.512;5.220;2023-01-04T00:03:00;12.32;;;10.13;;
65706;SDS011;52423;43.512;5.220;2023-01-04T00:05:25;12.25;;;9.80;;
65706;SDS011;52423;43.512;5.220;2023-01-04T00:07:50;13.13;;;10.57;;
65706;SDS011;52423;43.512;5.220;2023-01-04T00:10:16;16.33;;;10.65;;
65706;SDS011;52423;43.512;5.220;2023-01-04T00:12:41;13.38;;;10.18;;
65706;SDS011;52423;43.512;5.220;2023-01-04T00:15:07;14.75;;;9.30;;
65706;SDS011;52423;43.512;5.220;2023-01-04T00:17:32;12.73;;;9.90;;
65706;SDS011;52423;43.512;5.220;2023-01-04T00:19:58;15.90;;;10.07;;
65706;SDS011;52423;43.512;5.220;2023-01-04T00:22:23;12.18;;;9.88;;
65706;SDS011;52423;43.512;5.220;2023-01-04T00:24:49;15.13;;;10.10;;
65706;SDS011;52423;43.512;5.220;2023-01-04T00:27:14;16.10;;;10.75;;
65706;SDS011;52423;43.512;5.220;2023-01-04T00:29:39;16.38;;;11.15;;
65706;SDS011;52423;43.512;5.220;2023-01-04T00:32:05;14.23;;;10.77;;
65706;SDS011;52423;43.512;5.220;2023-01-04T00:34:30;12.50;;;10.10;;
65706;SDS011;52423;43.512;5.220;2023-01-04T00:36:56;12.93;;;9.90;;
65706;SDS011;52423;43.512;5.220;2023-01-04T00:39:21;13.38;;;10.38;;
65706;SDS011;52423;43.512;5.220;2023-01-04T00:44:13;15.98;;;10.48;;
65706;SDS011;52423;43.512;5.220;2023-01-04T00:46:39;12.68;;;10.13;;
65706;SDS011;52423;43.512;5.220;2023-01-04T00:49:06;14.07;;;10.13;;
65706;SDS011;52423;43.512;5.220;2023-01-04T00:51:33;15.45;;;9.82;;
65706;SDS011;52423;43.512;5.220;2023-01-04T00:54:00;12.93;;;9.55;;
65706;SDS011;52423;43.512;5.220;2023-01-04T00:56:28;13.18;;;9.13;;
65706;SDS011;52423;43.512;5.220;2023-01-04T00:58:55;10.27;;;8.60;;
65706;SDS011;52423;43.512;5.220;2023-01-04T01:01:22;13.43;;;9.45;;
65706;SDS011;52423;43.512;5.220;2023-01-04T01:03:53;14.10;;;9.68;;
65706;SDS011;52423;43.512;5.220;2023-01-04T01:06:20;11.85;;;9.50;;
65706;SDS011;52423;43.512;5.220;2023-01-04T01:08:46;13.48;;;9.50;;
65706;SDS011;52423;43.512;5.220;2023-01-04T01:11:12;12.68;;;9.82;;
65706;SDS011;52423;43.512;5.220;2023-01-04T01:13:37;12.50;;;9.70;;
65706;SDS011;52423;43.512;5.220;2023-01-04T01:16:07;11.60;;;9.63;;
65706;SDS011;52423;43.512;5.220;2023-01-04T01:18:35;12.38;;;9.68;;
65706;SDS011;52423;43.512;5.220;2023-01-04T01:21:05;15.30;;;9.48;;
65706;SDS011;52423;43.512;5.220;2023-01-04T01:23:31;15.10;;;9.48;;
65706;SDS011;52423;43.512;5.220;2023-01-04T01:26:01;11.60;;;9.68;;
65706;SDS011;52423;43.512;5.220;2023-01-04T01:28:27;13.35;;;10.23;;
65706;SDS011;52423;43.512;5.220;2023-01-04T01:30:53;14.00;;;10.88;;
65706;SDS011;52423;43.512;5.220;2023-01-04T01:33:18;16.98;;;10.20;;
65706;SDS011;52423;43.512;5.220;2023-01-04T01:35:44;13.05;;;10.18;;
65706;SDS011;52423;43.512;5.220;2023-01-04T01:38:09;13.35;;;10.40;;
65706;SDS011;52423;43.512;5.220;2023-01-04T01:40:39;11.48;;;9.40;;
65706;SDS011;52423;43.512;5.220;2023-01-04T01:43:09;13.95;;;10.13;;
65706;SDS011;52423;43.512;5.220;2023-01-04T01:45:43;12.18;;;9.60;;
65706;SDS011;52423;43.512;5.220;2023-01-04T01:48:11;13.45;;;10.15;;
65706;SDS011;52423;43.512;5.220;2023-01-04T01:50:44;15.45;;;10.77;;
65706;SDS011;52423;43.512;5.220;2023-01-04T01:53:14;12.00;;;9.95;;
65706;SDS011;52423;43.512;5.220;2023-01-04T01:55:40;13.27;;;10.38;;
65706;SDS011;52423;43.512;5.220;2023-01-04T01:58:08;16.40;;;10.10;;
65706;SDS011;52423;43.512;5.220;2023-01-04T02:00:40;14.68;;;9.93;;
65706;SDS011;52423;43.512;5.220;2023-01-04T02:03:11;11.63;;;9.32;;
65706;SDS011;52423;43.512;5.220;2023-01-04T02:05:40;13.18;;;9.77;;
65706;SDS011;52423;43.512;5.220;2023-01-04T02:08:06;14.23;;;9.80;;
65706;SDS011;52423;43.512;5.220;2023-01-04T02:10:33;10.80;;;9.15;;
65706;SDS011;52423;43.512;5.220;2023-01-04T02:12:59;11.68;;;8.88;;
65706;SDS011;52423;43.512;5.220;2023-01-04T02:15:29;14.90;;;9.63;;
65706;SDS011;52423;43.512;5.220;2023-01-04T02:18:09;12.27;;;9.10;;
65706;SDS011;52423;43.512;5.220;2023-01-04T02:26:31;12.98;;;8.88;;
65706;SDS011;52423;43.512;5.220;2023-01-04T02:31:59;10.60;;;8.40;;
65706;SDS011;52423;43.512;5.220;2023-01-04T02:35:02;9.50;;;8.20;;
65706;SDS011;52423;43.512;5.220;2023-01-04T02:42:33;10.55;;;8.65;;
65706;SDS011;52423;43.512;5.220;2023-01-04T02:45:28;10.10;;;8.75;;
65706;SDS011;52423;43.512;5.220;2023-01-04T02:48:05;9.95;;;8.80;;
65706;SDS011;52423;43.512;5.220;2023-01-04T02:50:55;10.27;;;8.10;;
65706;SDS011;52423;43.512;5.220;2023-01-04T02:53:23;9.73;;;8.30;;
65706;SDS011;52423;43.512;5.220;2023-01-04T02:56:03;9.90;;;8.63;;
65706;SDS011;52423;43.512;5.220;2023-01-04T03:01:34;9.82;;;8.57;;
65706;SDS011;52423;43.512;5.220;2023-01-04T03:07:48;11.50;;;8.63;;
65706;SDS011;52423;43.512;5.220;2023-01-04T03:13:20;10.75;;;8.20;;
65706;SDS011;52423;43.512;5.220;2023-01-04T03:15:52;11.43;;;8.82;;
65706;SDS011;52423;43.512;5.220;2023-01-04T03:18:20;9.93;;;8.88;;
65706;SDS011;52423;43.512;5.220;2023-01-04T03:20:51;10.95;;;7.95;;
65706;SDS011;52423;43.512;5.220;2023-01-04T03:23:20;11.38;;;8.43;;
65706;SDS011;52423;43.512;5.220;2023-01-04T03:26:12;10.00;;;8.38;;
65706;SDS011;52423;43.512;5.220;2023-01-04T03:29:02;11.07;;;8.15;;
65706;SDS011;52423;43.512;5.220;2023-01-04T03:31:56;11.18;;;8.70;;
65706;SDS011;52423;43.512;5.220;2023-01-04T03:34:45;10.05;;;8.30;;
65706;SDS011;52423;43.512;5.220;2023-01-04T03:49:18;10.88;;;8.55;;
65706;SDS011;52423;43.512;5.220;2023-01-04T03:52:08;9.90;;;7.82;;
65706;SDS011;52423;43.512;5.220;2023-01-04T03:54:37;12.80;;;8.00;;
65706;SDS011;52423;43.512;5.220;2023-01-04T03:57:06;12.13;;;8.05;;
65706;SDS011;52423;43.512;5.220;2023-01-04T03:59:36;12.20;;;8.20;;
65706;SDS011;52423;43.512;5.220;2023-01-04T04:02:09;8.75;;;7.72;;
65706;SDS011;52423;43.512;5.220;2023-01-04T04:04:37;9.23;;;8.33;;
65706;SDS011;52423;43.512;5.220;2023-01-04T04:07:22;13.30;;;8.85;;
65706;SDS011;52423;43.512;5.220;2023-01-04T04:10:06;9.65;;;8.45;;
65706;SDS011;52423;43.512;5.220;2023-01-04T04:12:32;11.82;;;8.30;;
65706;SDS011;52423;43.512;5.220;2023-01-04T04:14:57;11.20;;;9.20;;
65706;SDS011;52423;43.512;5.220;2023-01-04T04:17:22;10.90;;;8.05;;
65706;SDS011;52423;43.512;5.220;2023-01-04T04:19:48;8.52;;;7.60;;
65706;SDS011;52423;43.512;5.220;2023-01-04T04:22:13;12.32;;;8.20;;
65706;SDS011;52423;43.512;5.220;2023-01-04T04:24:39;11.73;;;7.60;;
65706;SDS011;52423;43.512;5.220;2023-01-04T04:27:04;8.45;;;7.57;;
65706;SDS011;52423;43.512;5.220;2023-01-04T04:29:29;10.25;;;7.40;;
65706;SDS011;52423;43.512;5.220;2023-01-04T04:31:55;11.30;;;7.65;;
65706;SDS011;52423;43.512;5.220;2023-01-04T04:34:20;9.07;;;7.85;;
65706;SDS011;52423;43.512;5.220;2023-01-04T04:36:45;8.43;;;7.40;;
65706;SDS011;52423;43.512;5.220;2023-01-04T04:39:11;7.82;;;6.95;;
65706;SDS011;52423;43.512;5.220;2023-01-04T04:41:37;7.80;;;7.07;;
65706;SDS011;52423;43.512;5.220;2023-01-04T04:44:13;9.95;;;7.30;;
65706;SDS011;52423;43.512;5.220;2023-01-04T04:46:43;11.90;;;6.85;;
65706;SDS011;52423;43.512;5.220;2023-01-04T04:49:09;9.13;;;7.00;;
65706;SDS011;52423;43.512;5.220;2023-01-04T04:51:36;10.18;;;7.80;;
65706;SDS011;52423;43.512;5.220;2023-01-04T04:54:02;9.15;;;7.38;;
65706;SDS011;52423;43.512;5.220;2023-01-04T04:56:27;9.52;;;7.22;;
65706;SDS011;52423;43.512;5.220;2023-01-04T04:58:53;13.00;;;7.47;;
65706;SDS011;52423;43.512;5.220;2023-01-04T05:01:18;8.82;;;7.18;;
65706;SDS011;52423;43.512;5.220;2023-01-04T05:03:44;10.38;;;7.90;;
65706;SDS011;52423;43.512;5.220;2023-01-04T05:06:09;9.07;;;8.07;;
65706;SDS011;52423;43.512;5.220;2023-01-04T05:08:34;8.02;;;6.85;;
65706;SDS011;52423;43.512;5.220;2023-01-04T05:11:03;10.20;;;7.35;;
65706;SDS011;52423;43.512;5.220;2023-01-04T05:13:33;7.45;;;6.75;;
65706;SDS011;52423;43.512;5.220;2023-01-04T05:15:58;9.93;;;7.53;;
65706;SDS011;52423;43.512;5.220;2023-01-04T05:18:24;8.63;;;7.07;;
65706;SDS011;52423;43.512;5.220;2023-01-04T05:20:49;8.70;;;7.15;;
65706;SDS011;52423;43.512;5.220;2023-01-04T05:23:16;9.60;;;6.85;;
65706;SDS011;52423;43.512;5.220;2023-01-04T05:25:42;8.95;;;7.35;;
65706;SDS011;52423;43.512;5.220;2023-01-04T05:28:08;8.13;;;6.70;;
65706;SDS011;52423;43.512;5.220;2023-01-04T05:30:34;11.32;;;7.13;;
65706;SDS011;52423;43.512;5.220;2023-01-04T05:33:15;8.27;;;6.57;;
65706;SDS011;52423;43.512;5.220;2023-01-04T05:35:52;9.32;;;6.97;;
65706;SDS011;52423;43.512;5.220;2023-01-04T05:38:18;13.45;;;7.28;;
65706;SDS011;52423;43.512;5.220;2023-01-04T05:40:44;8.82;;;6.80;;
65706;SDS011;52423;43.512;5.220;2023-01-04T05:43:10;9.65;;;6.55;;
65706;SDS011;52423;43.512;5.220;2023-01-04T05:45:37;6.85;;;6.10;;
65706;SDS011;52423;43.512;5.220;2023-01-04T05:48:03;7.00;;;6.25;;
65706;SDS011;52423;43.512;5.220;2023-01-04T05:50:29;7.95;;;6.45;;
65706;SDS011;52423;43.512;5.220;2023-01-04T05:52:54;7.38;;;6.57;;
65706;SDS011;52423;43.512;5.220;2023-01-04T05:55:20;10.20;;;6.78;;
65706;SDS011;52423;43.512;5.220;2023-01-04T05:57:45;9.02;;;6.32;;
65706;SDS011;52423;43.512;5.220;2023-01-04T06:00:11;8.63;;;7.05;;
65706;SDS011;52423;43.512;5.220;2023-01-04T06:02:37;10.85;;;7.30;;
65706;SDS011;52423;43.512;5.220;2023-01-04T06:05:03;11.07;;;7.18;;
65706;SDS011;52423;43.512;5.220;2023-01-04T06:07:29;10.73;;;7.18;;
65706;SDS011;52423;43.512;5.220;2023-01-04T06:09:56;11.55;;;7.30;;
65706;SDS011;52423;43.512;5.220;2023-01-04T06:12:22;11.90;;;7.30;;
65706;SDS011;52423;43.512;5.220;2023-01-04T06:14:47;8.55;;;6.57;;
65706;SDS011;52423;43.512;5.220;2023-01-04T06:17:13;9.60;;;6.57;;
65706;SDS011;52423;43.512;5.220;2023-01-04T06:19:38;9.57;;;7.38;;
65706;SDS011;52423;43.512;5.220;2023-01-04T06:22:04;9.90;;;6.93;;
65706;SDS011;52423;43.512;5.220;2023-01-04T06:24:29;12.35;;;7.15;;
65706;SDS011;52423;43.512;5.220;2023-01-04T06:26:55;8.38;;;6.75;;
65706;SDS011;52423;43.512;5.220;2023-01-04T06:29:20;7.25;;;6.55;;
65706;SDS011;52423;43.512;5.220;2023-01-04T06:31:46;9.15;;;6.82;;
65706;SDS011;52423;43.512;5.220;2023-01-04T06:34:11;9.23;;;7.35;;
65706;SDS011;52423;43.512;5.220;2023-01-04T06:36:38;8.02;;;7.00;;
65706;SDS011;52423;43.512;5.220;2023-01-04T06:39:04;9.65;;;7.57;;
65706;SDS011;52423;43.512;5.220;2023-01-04T06:41:30;14.32;;;9.40;;
65706;SDS011;52423;43.512;5.220;2023-01-04T06:43:55;10.93;;;9.80;;
65706;SDS011;52423;43.512;5.220;2023-01-04T06:46:20;11.15;;;8.65;;
65706;SDS011;52423;43.512;5.220;2023-01-04T06:48:46;8.50;;;7.60;;
65706;SDS011;52423;43.512;5.220;2023-01-04T06:51:11;9.43;;;7.88;;
65706;SDS011;52423;43.512;5.220;2023-01-04T06:53:37;13.70;;;7.80;;
65706;SDS011;52423;43.512;5.220;2023-01-04T06:56:02;9.23;;;7.90;;
65706;SDS011;52423;43.512;5.220;2023-01-04T06:58:28;10.05;;;7.53;;
65706;SDS011;52423;43.512;5.220;2023-01-04T07:00:53;8.32;;;6.18;;
65706;SDS011;52423;43.512;5.220;2023-01-04T07:03:19;17.00;;;6.43;;
65706;SDS011;52423;43.512;5.220;2023-01-04T07:05:45;7.03;;;6.32;;
65706;SDS011;52423;43.512;5.220;2023-01-04T07:08:10;6.90;;;5.93;;
65706;SDS011;52423;43.512;5.220;2023-01-04T07:10:37;7.28;;;6.15;;
65706;SDS011;52423;43.512;5.220;2023-01-04T07:13:03;9.98;;;6.25;;
65706;SDS011;52423;43.512;5.220;2023-01-04T07:15:28;10.98;;;6.53;;
65706;SDS011;52423;43.512;5.220;2023-01-04T07:17:54;10.80;;;7.43;;
65706;SDS011;52423;43.512;5.220;2023-01-04T07:20:19;11.57;;;6.75;;
65706;SDS011;52423;43.512;5.220;2023-01-04T07:22:45;9.95;;;7.72;;
65706;SDS011;52423;43.512;5.220;2023-01-04T07:25:10;13.77;;;7.30;;
65706;SDS011;52423;43.512;5.220;2023-01-04T07:27:35;10.80;;;7.93;;
65706;SDS011;52423;43.512;5.220;2023-01-04T07:30:01;10.18;;;7.05;;
65706;SDS011;52423;43.512;5.220;2023-01-04T07:32:27;10.55;;;7.15;;
65706;SDS011;52423;43.512;5.220;2023-01-04T07:34:52;9.10;;;7.80;;
65706;SDS011;52423;43.512;5.220;2023-01-04T07:37:17;9.23;;;7.35;;
65706;SDS011;52423;43.512;5.220;2023-01-04T07:39:43;8.35;;;6.90;;
65706;SDS011;52423;43.512;5.220;2023-01-04T07:42:09;7.60;;;6.80;;
65706;SDS011;52423;43.512;5.220;2023-01-04T07:44:35;8.65;;;6.60;;
65706;SDS011;52423;43.512;5.220;2023-01-04T07:47:00;11.80;;;7.00;;
65706;SDS011;52423;43.512;5.220;2023-01-04T07:49:26;7.85;;;6.32;;
65706;SDS011;52423;43.512;5.220;2023-01-04T07:51:51;11.27;;;7.32;;
65706;SDS011;52423;43.512;5.220;2023-01-04T07:54:17;7.68;;;6.65;;
65706;SDS011;52423;43.512;5.220;2023-01-04T07:56:43;14.98;;;7.50;;
65706;SDS011;52423;43.512;5.220;2023-01-04T07:59:10;8.65;;;6.32;;
65706;SDS011;52423;43.512;5.220;2023-01-04T08:01:36;8.88;;;6.85;;
65706;SDS011;52423;43.512;5.220;2023-01-04T08:04:03;7.03;;;6.20;;
65706;SDS011;52423;43.512;5.220;2023-01-04T08:06:30;6.38;;;5.78;;
65706;SDS011;52423;43.512;5.220;2023-01-04T08:08:56;7.70;;;6.32;;
65706;SDS011;52423;43.512;5.220;2023-01-04T08:11:22;6.22;;;5.60;;
65706;SDS011;52423;43.512;5.220;2023-01-04T08:13:48;7.40;;;5.97;;
65706;SDS011;52423;43.512;5.220;2023-01-04T08:16:18;7.05;;;6.35;;
65706;SDS011;52423;43.512;5.220;2023-01-04T08:18:45;7.63;;;6.77;;
65706;SDS011;52423;43.512;5.220;2023-01-04T08:21:11;8.13;;;7.20;;
65706;SDS011;52423;43.512;5.220;2023-01-04T08:23:36;9.85;;;6.68;;
65706;SDS011;52423;43.512;5.220;2023-01-04T08:26:06;8.38;;;6.35;;
65706;SDS011;52423;43.512;5.220;2023-01-04T08:28:37;8.93;;;5.97;;
65706;SDS011;52423;43.512;5.220;2023-01-04T08:31:03;9.70;;;6.25;;
65706;SDS011;52423;43.512;5.220;2023-01-04T08:33:34;12.10;;;6.30;;
65706;SDS011;52423;43.512;5.220;2023-01-04T08:36:12;6.90;;;6.22;;
65706;SDS011;52423;43.512;5.220;2023-01-04T08:38:43;9.63;;;6.70;;
65706;SDS011;52423;43.512;5.220;2023-01-04T08:41:08;10.07;;;7.38;;
65706;SDS011;52423;43.512;5.220;2023-01-04T08:43:33;10.23;;;6.93;;
65706;SDS011;52423;43.512;5.220;2023-01-04T08:46:00;13.25;;;8.70;;
65706;SDS011;52423;43.512;5.220;2023-01-04T08:48:28;13.68;;;8.70;;
65706;SDS011;52423;43.512;5.220;2023-01-04T08:50:53;12.18;;;9.13;;
65706;SDS011;52423;43.512;5.220;2023-01-04T08:53:19;12.82;;;7.80;;
65706;SDS011;52423;43.512;5.220;2023-01-04T08:55:47;13.73;;;7.70;;
65706;SDS011;52423;43.512;5.220;2023-01-04T08:58:13;14.48;;;7.72;;
65706;SDS011;52423;43.512;5.220;2023-01-04T09:00:39;10.35;;;8.00;;
65706;SDS011;52423;43.512;5.220;2023-01-04T09:03:04;11.30;;;8.00;;
65706;SDS011;52423;43.512;5.220;2023-01-04T09:05:30;10.45;;;7.18;;
65706;SDS011;52423;43.512;5.220;2023-01-04T09:07:58;12.00;;;7.60;;
65706;SDS011;52423;43.512;5.220;2023-01-04T09:10:23;12.85;;;8.13;;
65706;SDS011;52423;43.512;5.220;2023-01-04T09:12:49;10.70;;;7.93;;
65706;SDS011;52423;43.512;5.220;2023-01-04T09:15:15;9.23;;;7.65;;
65706;SDS011;52423;43.512;5.220;2023-01-04T09:17:41;7.75;;;6.55;;
65706;SDS011;52423;43.512;5.220;2023-01-04T09:20:06;13.05;;;6.72;;
65706;SDS011;52423;43.512;5.220;2023-01-04T09:22:32;8.05;;;6.57;;
65706;SDS011;52423;43.512;5.220;2023-01-04T09:24:58;11.68;;;7.53;;
65706;SDS011;52423;43.512;5.220;2023-01-04T09:27:23;11.50;;;8.15;;
65706;SDS011;52423;43.512;5.220;2023-01-04T09:29:48;13.02;;;8.90;;
65706;SDS011;52423;43.512;5.220;2023-01-04T09:32:14;15.20;;;10.50;;
65706;SDS011;52423;43.512;5.220;2023-01-04T09:34:39;10.82;;;8.40;;
65706;SDS011;52423;43.512;5.220;2023-01-04T09:37:05;12.55;;;8.50;;
65706;SDS011;52423;43.512;5.220;2023-01-04T09:39:30;11.10;;;8.38;;
65706;SDS011;52423;43.512;5.220;2023-01-04T09:41:57;16.00;;;9.10;;
65706;SDS011;52423;43.512;5.220;2023-01-04T09:50:20;15.40;;;9.68;;
65706;SDS011;52423;43.512;5.220;2023-01-04T09:55:33;12.73;;;9.88;;
65706;SDS011;52423;43.512;5.220;2023-01-04T09:58:04;16.63;;;10.20;;
65706;SDS011;52423;43.512;5.220;2023-01-04T10:03:24;13.63;;;9.50;;
65706;SDS011;52423;43.512;5.220;2023-01-04T10:05:55;13.13;;;9.87;;
65706;SDS011;52423;43.512;5.220;2023-01-04T10:08:21;17.50;;;10.07;;
65706;SDS011;52423;43.512;5.220;2023-01-04T10:16:39;18.80;;;11.55;;
65706;SDS011;52423;43.512;5.220;2023-01-04T10:22:25;20.27;;;12.00;;
65706;SDS011;52423;43.512;5.220;2023-01-04T10:27:39;16.63;;;12.20;;
65706;SDS011;52423;43.512;5.220;2023-01-04T10:30:25;17.02;;;11.75;;
65706;SDS011;52423;43.512;5.220;2023-01-04T10:33:14;15.55;;;12.18;;
65706;SDS011;52423;43.512;5.220;2023-01-04T10:35:56;19.50;;;12.15;;
65706;SDS011;52423;43.512;5.220;2023-01-04T10:38:23;22.85;;;12.90;;
65706;SDS011;52423;43.512;5.220;2023-01-04T10:40:52;16.58;;;12.75;;
65706;SDS011;52423;43.512;5.220;2023-01-04T10:43:22;25.42;;;12.75;;
65706;SDS011;52423;43.512;5.220;2023-01-04T10:46:34;21.35;;;12.80;;
65706;SDS011;52423;43.512;5.220;2023-01-04T10:49:09;27.58;;;13.10;;
65706;SDS011;52423;43.512;5.220;2023-01-04T10:51:41;30.48;;;11.90;;
65706;SDS011;52423;43.512;5.220;2023-01-04T10:57:16;16.33;;;12.07;;
65706;SDS011;52423;43.512;5.220;2023-01-04T10:59:56;17.02;;;11.25;;
65706;SDS011;52423;43.512;5.220;2023-01-04T11:05:24;19.70;;;12.30;;
65706;SDS011;52423;43.512;5.220;2023-01-04T11:13:21;19.15;;;12.05;;
65706;SDS011;52423;43.512;5.220;2023-01-04T11:15:47;16.92;;;12.20;;
65706;SDS011;52423;43.512;5.220;2023-01-04T11:18:13;28.90;;;12.18;;
65706;SDS011;52423;43.512;5.220;2023-01-04T11:20:40;18.98;;;11.85;;
65706;SDS011;52423;43.512;5.220;2023-01-04T11:25:39;18.98;;;11.38;;
65706;SDS011;52423;43.512;5.220;2023-01-04T11:28:14;19.02;;;11.38;;
65706;SDS011;52423;43.512;5.220;2023-01-04T11:39:05;16.60;;;11.45;;
65706;SDS011;52423;43.512;5.220;2023-01-04T11:41:57;21.90;;;11.25;;
65706;SDS011;52423;43.512;5.220;2023-01-04T11:44:24;14.95;;;11.43;;
65706;SDS011;52423;43.512;5.220;2023-01-04T11:49:41;16.10;;;10.98;;
65706;SDS011;52423;43.512;5.220;2023-01-04T11:52:07;12.43;;;10.60;;
65706;SDS011;52423;43.512;5.220;2023-01-04T11:55:11;17.27;;;11.13;;
65706;SDS011;52423;43.512;5.220;2023-01-04T11:57:40;16.67;;;11.10;;
65706;SDS011;52423;43.512;5.220;2023-01-04T12:00:06;16.85;;;11.52;;
65706;SDS011;52423;43.512;5.220;2023-01-04T12:02:33;20.00;;;11.45;;
65706;SDS011;52423;43.512;5.220;2023-01-04T12:04:58;15.50;;;11.95;;
65706;SDS011;52423;43.512;5.220;2023-01-04T12:07:33;18.50;;;11.50;;
65706;SDS011;52423;43.512;5.220;2023-01-04T12:10:00;22.60;;;12.20;;
65706;SDS011;52423;43.512;5.220;2023-01-04T12:12:37;17.42;;;11.80;;
65706;SDS011;52423;43.512;5.220;2023-01-04T12:15:04;16.48;;;10.77;;
65706;SDS011;52423;43.512;5.220;2023-01-04T12:17:39;15.85;;;11.95;;
65706;SDS011;52423;43.512;5.220;2023-01-04T12:20:13;22.75;;;13.40;;
65706;SDS011;52423;43.512;5.220;2023-01-04T12:22:40;18.38;;;12.30;;
65706;SDS011;52423;43.512;5.220;2023-01-04T12:27:54;28.98;;;15.05;;
65706;SDS011;52423;43.512;5.220;2023-01-04T12:33:21;19.25;;;12.23;;
65706;SDS011;52423;43.512;5.220;2023-01-04T12:36:01;18.20;;;11.63;;
65706;SDS011;52423;43.512;5.220;2023-01-04T12:41:16;18.02;;;11.20;;
65706;SDS011;52423;43.512;5.220;2023-01-04T12:43:44;15.52;;;11.70;;
65706;SDS011;52423;43.512;5.220;2023-01-04T12:59:55;12.65;;;10.13;;
65706;SDS011;52423;43.512;5.220;2023-01-04T13:02:22;17.00;;;10.73;;
65706;SDS011;52423;43.512;5.220;2023-01-04T13:04:50;18.13;;;10.77;;
65706;SDS011;52423;43.512;5.220;2023-01-04T13:07:22;16.25;;;11.10;;
65706;SDS011;52423;43.512;5.220;2023-01-04T13:09:58;15.85;;;10.18;;
65706;SDS011;52423;43.512;5.220;2023-01-04T13:15:20;11.20;;;7.38;;
65706;SDS011;52423;43.512;5.220;2023-01-04T13:17:49;5.72;;;4.40;;
65706;SDS011;52423;43.512;5.220;2023-01-04T13:20:21;5.35;;;3.80;;
65706;SDS011;52423;43.512;5.220;2023-01-04T13:22:53;5.65;;;3.35;;
65706;SDS011;52423;43.512;5.220;2023-01-04T13:25:20;7.78;;;3.90;;
65706;SDS011;52423;43.512;5.220;2023-01-04T13:27:58;7.85;;;4.25;;
65706;SDS011;52423;43.512;5.220;2023-01-04T13:32:54;6.25;;;3.72;;
65706;SDS011;52423;43.512;5.220;2023-01-04T13:35:20;4.10;;;3.38;;
65706;SDS011;52423;43.512;5.220;2023-01-04T13:37:47;6.10;;;3.70;;
65706;SDS011;52423;43.512;5.220;2023-01-04T13:42:45;6.28;;;3.60;;
65706;SDS011;52423;43.512;5.220;2023-01-04T13:47:56;9.98;;;3.20;;
65706;SDS011;52423;43.512;5.220;2023-01-04T13:52:53;7.30;;;3.78;;
65706;SDS011;52423;43.512;5.220;2023-01-04T13:55:23;5.93;;;3.65;;
65706;SDS011;52423;43.512;5.220;2023-01-04T13:57:57;7.25;;;2.75;;
65706;SDS011;52423;43.512;5.220;2023-01-04T14:00:26;5.13;;;4.15;;
65706;SDS011;52423;43.512;5.220;2023-01-04T14:03:06;3.97;;;2.80;;
65706;SDS011;52423;43.512;5.220;2023-01-04T14:05:36;6.20;;;3.10;;
65706;SDS011;52423;43.512;5.220;2023-01-04T14:08:08;7.30;;;4.60;;
65706;SDS011;52423;43.512;5.220;2023-01-04T14:10:35;4.25;;;3.85;;
65706;SDS011;52423;43.512;5.220;2023-01-04T14:13:02;3.60;;;3.30;;
65706;SDS011;52423;43.512;5.220;2023-01-04T14:15:28;5.85;;;3.47;;
65706;SDS011;52423;43.512;5.220;2023-01-04T14:17:57;4.20;;;3.60;;
65706;SDS011;52423;43.512;5.220;2023-01-04T14:20:33;7.03;;;3.72;;
65706;SDS011;52423;43.512;5.220;2023-01-04T14:23:00;3.50;;;2.97;;
65706;SDS011;52423;43.512;5.220;2023-01-04T14:28:18;5.35;;;3.60;;
65706;SDS011;52423;43.512;5.220;2023-01-04T14:30:45;4.47;;;3.90;;
65706;SDS011;52423;43.512;5.220;2023-01-04T14:33:13;4.68;;;3.88;;
65706;SDS011;52423;43.512;5.220;2023-01-04T14:35:41;4.70;;;3.95;;
65706;SDS011;52423;43.512;5.220;2023-01-04T14:38:14;8.60;;;4.00;;
65706;SDS011;52423;43.512;5.220;2023-01-04T14:40:42;8.13;;;3.70;;
65706;SDS011;52423;43.512;5.220;2023-01-04T14:46:00;3.30;;;3.00;;
65706;SDS011;52423;43.512;5.220;2023-01-04T14:48:27;3.97;;;3.58;;
65706;SDS011;52423;43.512;5.220;2023-01-04T14:50:53;7.68;;;4.30;;
65706;SDS011;52423;43.512;5.220;2023-01-04T14:53:19;10.55;;;3.88;;
65706;SDS011;52423;43.512;5.220;2023-01-04T14:55:45;5.50;;;4.25;;
65706;SDS011;52423;43.512;5.220;2023-01-04T14:58:11;5.53;;;4.32;;
65706;SDS011;52423;43.512;5.220;2023-01-04T15:00:36;4.53;;;4.10;;
65706;SDS011;52423;43.512;5.220;2023-01-04T15:03:01;7.65;;;4.18;;
65706;SDS011;52423;43.512;5.220;2023-01-04T15:05:27;4.50;;;4.10;;
65706;SDS011;52423;43.512;5.220;2023-01-04T15:07:52;4.53;;;4.10;;
65706;SDS011;52423;43.512;5.220;2023-01-04T15:10:19;7.53;;;5.85;;
65706;SDS011;52423;43.512;5.220;2023-01-04T15:12:47;8.05;;;5.38;;
65706;SDS011;52423;43.512;5.220;2023-01-04T15:15:12;7.60;;;6.15;;
65706;SDS011;52423;43.512;5.220;2023-01-04T15:17:38;7.45;;;6.22;;
65706;SDS011;52423;43.512;5.220;2023-01-04T15:20:03;8.65;;;5.35;;
65706;SDS011;52423;43.512;5.220;2023-01-04T15:22:30;8.38;;;5.18;;
65706;SDS011;52423;43.512;5.220;2023-01-04T15:24:55;8.73;;;5.43;;
65706;SDS011;52423;43.512;5.220;2023-01-04T15:27:20;10.77;;;6.72;;
65706;SDS011;52423;43.512;5.220;2023-01-04T15:29:46;6.05;;;5.47;;
65706;SDS011;52423;43.512;5.220;2023-01-04T15:32:11;5.85;;;5.18;;
65706;SDS011;52423;43.512;5.220;2023-01-04T15:34:36;6.43;;;5.15;;
65706;SDS011;52423;43.512;5.220;2023-01-04T15:37:02;11.82;;;5.22;;
65706;SDS011;52423;43.512;5.220;2023-01-04T15:39:27;4.85;;;4.35;;
65706;SDS011;52423;43.512;5.220;2023-01-04T15:41:53;8.55;;;5.68;;
65706;SDS011;52423;43.512;5.220;2023-01-04T15:44:37;5.22;;;4.72;;
65706;SDS011;52423;43.512;5.220;2023-01-04T15:47:02;6.05;;;4.45;;
65706;SDS011;52423;43.512;5.220;2023-01-04T15:49:28;6.45;;;4.80;;
65706;SDS011;52423;43.512;5.220;2023-01-04T15:51:54;8.15;;;4.47;;
65706;SDS011;52423;43.512;5.220;2023-01-04T15:54:20;8.25;;;4.55;;
65706;SDS011;52423;43.512;5.220;2023-01-04T15:56:48;6.38;;;5.03;;
65706;SDS011;52423;43.512;5.220;2023-01-04T15:59:13;9.50;;;5.28;;
65706;SDS011;52423;43.512;5.220;2023-01-04T16:01:38;7.75;;;5.68;;
65706;SDS011;52423;43.512;5.220;2023-01-04T16:04:04;7.60;;;6.47;;
65706;SDS011;52423;43.512;5.220;2023-01-04T16:06:30;9.23;;;6.15;;
65706;SDS011;52423;43.512;5.220;2023-01-04T16:08:56;10.98;;;6.97;;
65706;SDS011;52423;43.512;5.220;2023-01-04T16:11:23;16.70;;;10.63;;
65706;SDS011;52423;43.512;5.220;2023-01-04T16:13:49;25.33;;;15.55;;
65706;SDS011;52423;43.512;5.220;2023-01-04T16:16:16;23.13;;;14.80;;
65706;SDS011;52423;43.512;5.220;2023-01-04T16:18:43;24.67;;;16.23;;
65706;SDS011;52423;43.512;5.220;2023-01-04T16:21:10;22.40;;;15.85;;
65706;SDS011;52423;43.512;5.220;2023-01-04T16:23:36;21.40;;;14.57;;
65706;SDS011;52423;43.512;5.220;2023-01-04T16:26:11;25.48;;;16.35;;
65706;SDS011;52423;43.512;5.220;2023-01-04T16:28:38;39.13;;;19.77;;
65706;SDS011;52423;43.512;5.220;2023-01-04T16:31:04;41.45;;;23.23;;
65706;SDS011;52423;43.512;5.220;2023-01-04T16:33:31;49.00;;;29.85;;
65706;SDS011;52423;43.512;5.220;2023-01-04T16:35:57;59.33;;;30.08;;
65706;SDS011;52423;43.512;5.220;2023-01-04T16:38:26;51.65;;;29.13;;
65706;SDS011;52423;43.512;5.220;2023-01-04T16:40:59;28.02;;;18.98;;
65706;SDS011;52423;43.512;5.220;2023-01-04T16:43:25;35.05;;;23.67;;
65706;SDS011;52423;43.512;5.220;2023-01-04T16:45:58;32.63;;;20.33;;
65706;SDS011;52423;43.512;5.220;2023-01-04T16:48:44;32.67;;;18.77;;
65706;SDS011;52423;43.512;5.220;2023-01-04T16:51:10;21.75;;;14.75;;